sensor_id;sensor_type;location;lat;lon;timestamp;pressure;altitude;pressure_sealevel;temperature;humidity
37142;BME280;23041;49.816;20.092;2022-10-14T00:01:10;98056.13;;;8.76;66.00
37142;BME280;23041;49.816;20.092;2022-10-14T00:03:40;98046.84;;;8.51;66.00
37142;BME280;23041;49.816;20.092;2022-10-14T00:06:09;98053.74;;;8.44;66.02
37142;BME280;23041;49.816;20.092;2022-10-14T00:08:40;98055.13;;;8.41;66.05
37142;BME280;23041;49.816;20.092;2022-10-14T00:11:09;98051.27;;;8.38;66.04
37142;BME280;23041;49.816;20.092;2022-10-14T00:13:37;98050.86;;;8.40;66.06
37142;BME280;23041;49.816;20.092;2022-10-14T00:16:05;98048.29;;;8.41;66.12
37142;BME280;23041;49.816;20.092;2022-10-14T00:18:33;98044.42;;;8.38;66.18
37142;BME280;23041;49.816;20.092;2022-10-14T00:21:00;98040.97;;;8.31;66.24
37142;BME280;23041;49.816;20.092;2022-10-14T00:23:28;98039.60;;;8.31;66.32
37142;BME280;23041;49.816;20.092;2022-10-14T00:25:54;98042.37;;;8.24;66.38
37142;BME280;23041;49.816;20.092;2022-10-14T00:28:20;98032.94;;;8.09;66.49
37142;BME280;23041;49.816;20.092;2022-10-14T00:30:58;98027.64;;;8.10;66.59
37142;BME280;23041;49.816;20.092;2022-10-14T00:33:26;98036.03;;;8.11;66.67
37142;BME280;23041;49.816;20.092;2022-10-14T00:36:02;98038.16;;;8.15;66.75
37142;BME280;23041;49.816;20.092;2022-10-14T00:38:30;98040.70;;;8.14;66.75
37142;BME280;23041;49.816;20.092;2022-10-14T00:40:56;98036.86;;;8.05;66.75
37142;BME280;23041;49.816;20.092;2022-10-14T00:43:25;98041.34;;;8.07;66.78
37142;BME280;23041;49.816;20.092;2022-10-14T00:45:53;98035.49;;;8.05;66.79
37142;BME280;23041;49.816;20.092;2022-10-14T00:48:22;98028.65;;;8.08;66.80
37142;BME280;23041;49.816;20.092;2022-10-14T00:50:49;98034.27;;;8.13;66.93
37142;BME280;23041;49.816;20.092;2022-10-14T00:53:18;98038.56;;;8.14;66.94
37142;BME280;23041;49.816;20.092;2022-10-14T00:55:45;98023.41;;;8.25;67.03
37142;BME280;23041;49.816;20.092;2022-10-14T00:58:11;98009.98;;;8.22;67.24
37142;BME280;23041;49.816;20.092;2022-10-14T01:00:38;98014.08;;;8.22;67.37
37142;BME280;23041;49.816;20.092;2022-10-14T01:03:09;98014.67;;;8.22;67.46
37142;BME280;23041;49.816;20.092;2022-10-14T01:05:45;98017.74;;;8.27;67.54
37142;BME280;23041;49.816;20.092;2022-10-14T01:09:02;98017.87;;;8.35;67.57
37142;BME280;23041;49.816;20.092;2022-10-14T01:11:03;98018.06;;;8.36;67.58
37142;BME280;23041;49.816;20.092;2022-10-14T01:13:33;98021.17;;;8.38;67.61
37142;BME280;23041;49.816;20.092;2022-10-14T01:22:10;98016.18;;;8.26;67.65
37142;BME280;23041;49.816;20.092;2022-10-14T01:33:07;98007.08;;;7.95;67.81
37142;BME280;23041;49.816;20.092;2022-10-14T01:36:37;98000.38;;;8.03;67.86
37142;BME280;23041;49.816;20.092;2022-10-14T01:38:39;97992.52;;;8.09;67.99
37142;BME280;23041;49.816;20.092;2022-10-14T01:41:22;97992.53;;;8.05;68.03
37142;BME280;23041;49.816;20.092;2022-10-14T01:43:56;97996.48;;;8.01;68.05
37142;BME280;23041;49.816;20.092;2022-10-14T01:46:26;97987.27;;;7.84;68.01
37142;BME280;23041;49.816;20.092;2022-10-14T01:48:57;97996.45;;;7.82;68.04
37142;BME280;23041;49.816;20.092;2022-10-14T01:51:34;97990.38;;;7.60;68.05
37142;BME280;23041;49.816;20.092;2022-10-14T01:54:05;97993.06;;;7.67;68.16
37142;BME280;23041;49.816;20.092;2022-10-14T01:56:31;97989.13;;;7.72;68.25
37142;BME280;23041;49.816;20.092;2022-10-14T01:58:59;97994.29;;;7.85;68.30
37142;BME280;23041;49.816;20.092;2022-10-14T02:01:26;97991.13;;;7.90;68.34
37142;BME280;23041;49.816;20.092;2022-10-14T02:03:52;97987.70;;;8.01;68.39
37142;BME280;23041;49.816;20.092;2022-10-14T02:06:31;97981.64;;;8.02;68.43
37142;BME280;23041;49.816;20.092;2022-10-14T02:09:06;97981.41;;;8.04;68.48
37142;BME280;23041;49.816;20.092;2022-10-14T02:18:14;97986.03;;;8.11;68.50
37142;BME280;23041;49.816;20.092;2022-10-14T02:21:13;97986.38;;;8.16;68.56
37142;BME280;23041;49.816;20.092;2022-10-14T02:23:59;97976.47;;;8.11;68.64
37142;BME280;23041;49.816;20.092;2022-10-14T02:26:26;97972.50;;;8.19;68.76
37142;BME280;23041;49.816;20.092;2022-10-14T02:28:55;97970.45;;;8.30;68.82
37142;BME280;23041;49.816;20.092;2022-10-14T02:31:23;97972.30;;;8.40;68.91
37142;BME280;23041;49.816;20.092;2022-10-14T02:33:53;97975.98;;;8.60;68.99
37142;BME280;23041;49.816;20.092;2022-10-14T02:36:22;97970.76;;;8.73;69.01
37142;BME280;23041;49.816;20.092;2022-10-14T02:38:49;97976.79;;;8.91;69.07
37142;BME280;23041;49.816;20.092;2022-10-14T02:41:19;97975.15;;;8.97;69.12
37142;BME280;23041;49.816;20.092;2022-10-14T02:43:47;97970.12;;;9.08;69.17
37142;BME280;23041;49.816;20.092;2022-10-14T02:46:14;97968.53;;;9.10;69.41
37142;BME280;23041;49.816;20.092;2022-10-14T02:48:40;97963.95;;;9.15;69.23
37142;BME280;23041;49.816;20.092;2022-10-14T02:51:06;97966.11;;;9.16;69.26
37142;BME280;23041;49.816;20.092;2022-10-14T02:53:33;97964.86;;;9.20;69.27
37142;BME280;23041;49.816;20.092;2022-10-14T02:55:59;97951.79;;;9.05;69.33
37142;BME280;23041;49.816;20.092;2022-10-14T02:58:26;97964.83;;;9.09;69.38
37142;BME280;23041;49.816;20.092;2022-10-14T03:00:52;97958.88;;;9.14;69.42
37142;BME280;23041;49.816;20.092;2022-10-14T03:03:18;97965.30;;;9.30;69.46
37142;BME280;23041;49.816;20.092;2022-10-14T03:05:45;97963.45;;;9.35;69.51
37142;BME280;23041;49.816;20.092;2022-10-14T03:08:11;97964.31;;;9.44;69.48
37142;BME280;23041;49.816;20.092;2022-10-14T03:10:37;97954.55;;;9.43;69.51
37142;BME280;23041;49.816;20.092;2022-10-14T03:13:03;97961.36;;;9.47;69.54
37142;BME280;23041;49.816;20.092;2022-10-14T03:15:30;97956.41;;;9.50;69.57
37142;BME280;23041;49.816;20.092;2022-10-14T03:17:56;97956.36;;;9.53;69.59
37142;BME280;23041;49.816;20.092;2022-10-14T03:20:22;97943.40;;;9.42;69.66
37142;BME280;23041;49.816;20.092;2022-10-14T03:22:49;97945.20;;;9.40;69.72
37142;BME280;23041;49.816;20.092;2022-10-14T03:25:15;97949.31;;;9.40;69.73
37142;BME280;23041;49.816;20.092;2022-10-14T03:27:42;97950.73;;;9.49;69.74
37142;BME280;23041;49.816;20.092;2022-10-14T03:30:08;97954.91;;;9.45;69.72
37142;BME280;23041;49.816;20.092;2022-10-14T03:32:35;97949.84;;;9.43;69.72
37142;BME280;23041;49.816;20.092;2022-10-14T03:35:01;97947.80;;;9.36;69.70
37142;BME280;23041;49.816;20.092;2022-10-14T03:37:28;97950.30;;;9.27;69.70
37142;BME280;23041;49.816;20.092;2022-10-14T03:39:54;97952.91;;;9.22;69.69
37142;BME280;23041;49.816;20.092;2022-10-14T03:42:21;97944.63;;;8.99;69.72
37142;BME280;23041;49.816;20.092;2022-10-14T03:44:47;97942.67;;;8.99;69.79
37142;BME280;23041;49.816;20.092;2022-10-14T03:47:13;97949.73;;;8.97;69.81
37142;BME280;23041;49.816;20.092;2022-10-14T03:49:39;97941.52;;;8.97;69.79
37142;BME280;23041;49.816;20.092;2022-10-14T03:52:06;97957.88;;;9.00;69.82
37142;BME280;23041;49.816;20.092;2022-10-14T03:54:32;97944.44;;;8.98;69.88
37142;BME280;23041;49.816;20.092;2022-10-14T03:56:58;97955.61;;;8.95;69.89
37142;BME280;23041;49.816;20.092;2022-10-14T03:59:25;97935.19;;;8.73;69.91
37142;BME280;23041;49.816;20.092;2022-10-14T04:01:51;97934.55;;;8.62;69.98
37142;BME280;23041;49.816;20.092;2022-10-14T04:04:17;97928.11;;;8.60;70.02
37142;BME280;23041;49.816;20.092;2022-10-14T04:06:44;97929.07;;;8.62;70.12
37142;BME280;23041;49.816;20.092;2022-10-14T04:09:10;97930.62;;;8.78;70.14
37142;BME280;23041;49.816;20.092;2022-10-14T04:11:37;97933.95;;;8.78;70.18
37142;BME280;23041;49.816;20.092;2022-10-14T04:14:03;97934.91;;;8.79;70.21
37142;BME280;23041;49.816;20.092;2022-10-14T04:16:29;97933.59;;;8.76;70.22
37142;BME280;23041;49.816;20.092;2022-10-14T04:18:57;97925.61;;;8.73;70.24
37142;BME280;23041;49.816;20.092;2022-10-14T04:21:23;97920.76;;;8.54;70.26
37142;BME280;23041;49.816;20.092;2022-10-14T04:23:50;97918.29;;;8.48;70.30
37142;BME280;23041;49.816;20.092;2022-10-14T04:26:16;97914.38;;;8.49;70.37
37142;BME280;23041;49.816;20.092;2022-10-14T04:28:42;97918.53;;;8.45;70.40
37142;BME280;23041;49.816;20.092;2022-10-14T04:31:09;97930.73;;;8.52;70.44
37142;BME280;23041;49.816;20.092;2022-10-14T04:33:35;97924.59;;;8.45;70.44
37142;BME280;23041;49.816;20.092;2022-10-14T04:36:04;97921.42;;;8.46;70.44
37142;BME280;23041;49.816;20.092;2022-10-14T04:38:32;97925.37;;;8.45;70.45
37142;BME280;23041;49.816;20.092;2022-10-14T04:40:58;97915.09;;;8.38;70.47
37142;BME280;23041;49.816;20.092;2022-10-14T04:43:25;97910.08;;;8.33;70.47
37142;BME280;23041;49.816;20.092;2022-10-14T04:45:51;97910.72;;;8.25;70.47
37142;BME280;23041;49.816;20.092;2022-10-14T04:48:19;97910.13;;;8.07;70.50
37142;BME280;23041;49.816;20.092;2022-10-14T04:50:48;97901.47;;;7.93;70.53
37142;BME280;23041;49.816;20.092;2022-10-14T04:53:16;97914.88;;;7.99;70.54
37142;BME280;23041;49.816;20.092;2022-10-14T04:55:43;97911.56;;;8.00;70.56
37142;BME280;23041;49.816;20.092;2022-10-14T04:58:11;97908.03;;;8.03;70.58
37142;BME280;23041;49.816;20.092;2022-10-14T05:00:38;97918.73;;;8.05;70.61
37142;BME280;23041;49.816;20.092;2022-10-14T05:03:04;97912.34;;;8.00;70.62
37142;BME280;23041;49.816;20.092;2022-10-14T05:05:31;97908.22;;;8.04;70.65
37142;BME280;23041;49.816;20.092;2022-10-14T05:07:57;97910.20;;;8.00;70.68
37142;BME280;23041;49.816;20.092;2022-10-14T05:10:23;97902.94;;;7.86;70.70
37142;BME280;23041;49.816;20.092;2022-10-14T05:12:50;97907.20;;;7.87;70.74
37142;BME280;23041;49.816;20.092;2022-10-14T05:15:16;97904.84;;;7.89;70.75
37142;BME280;23041;49.816;20.092;2022-10-14T05:17:43;97910.34;;;8.04;70.78
37142;BME280;23041;49.816;20.092;2022-10-14T05:20:10;97907.39;;;8.07;70.73
37142;BME280;23041;49.816;20.092;2022-10-14T05:22:37;97908.88;;;8.15;70.74
37142;BME280;23041;49.816;20.092;2022-10-14T05:25:04;97909.82;;;8.16;70.74
37142;BME280;23041;49.816;20.092;2022-10-14T05:27:31;97910.52;;;8.24;70.73
37142;BME280;23041;49.816;20.092;2022-10-14T05:29:58;97910.48;;;8.31;70.76
37142;BME280;23041;49.816;20.092;2022-10-14T05:32:24;97901.14;;;8.25;70.79
37142;BME280;23041;49.816;20.092;2022-10-14T05:34:50;97902.41;;;8.36;70.83
37142;BME280;23041;49.816;20.092;2022-10-14T05:37:17;97901.42;;;8.53;70.91
37142;BME280;23041;49.816;20.092;2022-10-14T05:39:43;97903.06;;;8.77;70.93
37142;BME280;23041;49.816;20.092;2022-10-14T05:42:09;97912.22;;;8.94;70.95
37142;BME280;23041;49.816;20.092;2022-10-14T05:44:35;97904.96;;;9.11;70.97
37142;BME280;23041;49.816;20.092;2022-10-14T05:47:02;97910.98;;;9.25;70.95
37142;BME280;23041;49.816;20.092;2022-10-14T05:49:28;97901.48;;;9.33;70.93
37142;BME280;23041;49.816;20.092;2022-10-14T05:51:55;97904.75;;;9.48;70.91
37142;BME280;23041;49.816;20.092;2022-10-14T05:54:21;97900.72;;;9.56;70.88
37142;BME280;23041;49.816;20.092;2022-10-14T05:56:47;97900.53;;;9.67;70.83
37142;BME280;23041;49.816;20.092;2022-10-14T05:59:14;97899.42;;;9.64;70.79
37142;BME280;23041;49.816;20.092;2022-10-14T06:01:40;97896.59;;;9.79;70.81
37142;BME280;23041;49.816;20.092;2022-10-14T06:04:07;97890.80;;;9.97;70.77
37142;BME280;23041;49.816;20.092;2022-10-14T06:06:34;97896.41;;;10.33;70.72
37142;BME280;23041;49.816;20.092;2022-10-14T06:09:00;97901.91;;;10.53;70.65
37142;BME280;23041;49.816;20.092;2022-10-14T06:11:26;97904.73;;;10.77;70.57
37142;BME280;23041;49.816;20.092;2022-10-14T06:13:53;97901.78;;;11.04;70.49
37142;BME280;23041;49.816;20.092;2022-10-14T06:16:19;97902.86;;;11.34;70.37
37142;BME280;23041;49.816;20.092;2022-10-14T06:18:45;97905.34;;;11.69;70.25
37142;BME280;23041;49.816;20.092;2022-10-14T06:21:12;97902.52;;;11.97;70.11
37142;BME280;23041;49.816;20.092;2022-10-14T06:23:38;97892.44;;;12.07;69.96
37142;BME280;23041;49.816;20.092;2022-10-14T06:26:05;97899.98;;;12.40;69.80
37142;BME280;23041;49.816;20.092;2022-10-14T06:28:33;97904.01;;;12.85;69.56
37142;BME280;23041;49.816;20.092;2022-10-14T06:31:00;97904.59;;;13.56;69.31
37142;BME280;23041;49.816;20.092;2022-10-14T06:33:28;97913.63;;;13.99;69.02
37142;BME280;23041;49.816;20.092;2022-10-14T06:35:55;97914.43;;;14.04;68.61
37142;BME280;23041;49.816;20.092;2022-10-14T06:38:22;97914.97;;;13.94;68.12
37142;BME280;23041;49.816;20.092;2022-10-14T06:40:52;97917.97;;;14.04;67.65
37142;BME280;23041;49.816;20.092;2022-10-14T06:43:20;97907.70;;;14.39;67.30
37142;BME280;23041;49.816;20.092;2022-10-14T06:45:47;97915.06;;;14.59;66.89
37142;BME280;23041;49.816;20.092;2022-10-14T06:48:14;97917.60;;;14.71;66.43
37142;BME280;23041;49.816;20.092;2022-10-14T06:50:40;97919.13;;;15.25;65.96
37142;BME280;23041;49.816;20.092;2022-10-14T06:53:07;97910.14;;;16.78;65.69
37142;BME280;23041;49.816;20.092;2022-10-14T06:55:34;97909.83;;;18.36;65.24
37142;BME280;23041;49.816;20.092;2022-10-14T06:58:00;97910.08;;;18.96;64.41
37142;BME280;23041;49.816;20.092;2022-10-14T07:00:26;97913.33;;;20.18;63.21
37142;BME280;23041;49.816;20.092;2022-10-14T07:02:53;97909.33;;;22.12;62.11
37142;BME280;23041;49.816;20.092;2022-10-14T07:05:19;97905.27;;;23.78;60.53
37142;BME280;23041;49.816;20.092;2022-10-14T07:07:46;97907.06;;;25.50;58.66
37142;BME280;23041;49.816;20.092;2022-10-14T07:10:12;97911.38;;;26.98;56.56
37142;BME280;23041;49.816;20.092;2022-10-14T07:12:39;97903.63;;;28.27;54.19
37142;BME280;23041;49.816;20.092;2022-10-14T07:15:06;97906.07;;;29.31;51.68
37142;BME280;23041;49.816;20.092;2022-10-14T07:17:33;97908.45;;;30.32;49.26
37142;BME280;23041;49.816;20.092;2022-10-14T07:19:59;97902.03;;;30.31;46.88
37142;BME280;23041;49.816;20.092;2022-10-14T07:22:25;97906.30;;;30.39;44.83
37142;BME280;23041;49.816;20.092;2022-10-14T07:24:52;97900.09;;;30.55;43.20
37142;BME280;23041;49.816;20.092;2022-10-14T07:27:18;97900.51;;;31.33;41.77
37142;BME280;23041;49.816;20.092;2022-10-14T07:29:45;97904.50;;;31.60;40.21
37142;BME280;23041;49.816;20.092;2022-10-14T07:32:12;97902.87;;;31.43;38.82
37142;BME280;23041;49.816;20.092;2022-10-14T07:34:38;97897.47;;;31.31;37.78
37142;BME280;23041;49.816;20.092;2022-10-14T07:37:04;97896.53;;;31.96;37.03
37142;BME280;23041;49.816;20.092;2022-10-14T07:39:30;97891.91;;;32.39;36.05
37142;BME280;23041;49.816;20.092;2022-10-14T07:41:57;97894.25;;;32.41;34.97
37142;BME280;23041;49.816;20.092;2022-10-14T07:44:23;97890.28;;;31.30;33.98
37142;BME280;23041;49.816;20.092;2022-10-14T07:46:50;97897.50;;;30.00;33.52
37142;BME280;23041;49.816;20.092;2022-10-14T07:49:17;97897.78;;;28.78;33.25
37142;BME280;23041;49.816;20.092;2022-10-14T07:51:45;97899.13;;;28.58;33.22
37142;BME280;23041;49.816;20.092;2022-10-14T07:54:15;97891.88;;;30.58;33.22
37142;BME280;23041;49.816;20.092;2022-10-14T07:56:47;97895.77;;;32.42;32.59
37142;BME280;23041;49.816;20.092;2022-10-14T07:59:20;97891.75;;;34.00;31.64
37142;BME280;23041;49.816;20.092;2022-10-14T08:01:46;97901.28;;;35.25;30.41
37142;BME280;23041;49.816;20.092;2022-10-14T08:04:13;97889.66;;;36.33;29.33
37142;BME280;23041;49.816;20.092;2022-10-14T08:06:40;97892.28;;;37.18;28.23
37142;BME280;23041;49.816;20.092;2022-10-14T08:09:08;97892.20;;;36.49;27.31
37142;BME280;23041;49.816;20.092;2022-10-14T08:11:35;97891.84;;;34.78;26.81
37142;BME280;23041;49.816;20.092;2022-10-14T08:14:03;97886.70;;;33.24;26.74
37142;BME280;23041;49.816;20.092;2022-10-14T08:16:31;97888.41;;;32.39;26.73
37142;BME280;23041;49.816;20.092;2022-10-14T08:19:02;97887.13;;;31.64;26.87
37142;BME280;23041;49.816;20.092;2022-10-14T08:21:30;97880.77;;;30.97;27.11
37142;BME280;23041;49.816;20.092;2022-10-14T08:23:56;97880.63;;;30.01;27.48
37142;BME280;23041;49.816;20.092;2022-10-14T08:29:05;97879.28;;;28.43;28.17
37142;BME280;23041;49.816;20.092;2022-10-14T08:31:34;97882.94;;;27.14;28.47
37142;BME280;23041;49.816;20.092;2022-10-14T08:34:00;97881.89;;;26.24;29.02
37142;BME280;23041;49.816;20.092;2022-10-14T08:36:27;97880.83;;;25.54;29.48
37142;BME280;23041;49.816;20.092;2022-10-14T08:38:54;97874.00;;;25.02;30.00
37142;BME280;23041;49.816;20.092;2022-10-14T08:41:44;97879.08;;;24.62;30.61
37142;BME280;23041;49.816;20.092;2022-10-14T08:44:41;97882.70;;;24.28;31.14
37142;BME280;23041;49.816;20.092;2022-10-14T08:47:12;97883.38;;;23.77;31.88
37142;BME280;23041;49.816;20.092;2022-10-14T08:55:46;97883.84;;;22.64;33.06
37142;BME280;23041;49.816;20.092;2022-10-14T08:58:35;97880.14;;;22.57;33.62
37142;BME280;23041;49.816;20.092;2022-10-14T09:03:52;97881.66;;;22.52;34.19
37142;BME280;23041;49.816;20.092;2022-10-14T09:06:26;97884.66;;;22.37;34.48
37142;BME280;23041;49.816;20.092;2022-10-14T09:09:13;97882.59;;;22.27;34.61
37142;BME280;23041;49.816;20.092;2022-10-14T09:11:50;97878.66;;;22.34;34.83
37142;BME280;23041;49.816;20.092;2022-10-14T09:14:24;97873.16;;;22.62;35.06
37142;BME280;23041;49.816;20.092;2022-10-14T09:16:55;97880.48;;;22.92;35.02
37142;BME280;23041;49.816;20.092;2022-10-14T09:19:34;97880.06;;;22.72;34.82
37142;BME280;23041;49.816;20.092;2022-10-14T09:22:15;97878.56;;;22.39;34.82
37142;BME280;23041;49.816;20.092;2022-10-14T09:24:42;97880.70;;;22.02;35.01
37142;BME280;23041;49.816;20.092;2022-10-14T09:27:18;97877.70;;;21.89;35.24
37142;BME280;23041;49.816;20.092;2022-10-14T09:29:58;97877.38;;;21.55;35.43
37142;BME280;23041;49.816;20.092;2022-10-14T09:32:41;97873.67;;;21.32;35.80
37142;BME280;23041;49.816;20.092;2022-10-14T09:35:14;97871.71;;;21.12;36.03
37142;BME280;23041;49.816;20.092;2022-10-14T09:37:43;97874.67;;;21.03;36.33
37142;BME280;23041;49.816;20.092;2022-10-14T09:40:30;97868.63;;;21.36;36.56
37142;BME280;23041;49.816;20.092;2022-10-14T09:45:57;97867.91;;;25.28;35.79
37142;BME280;23041;49.816;20.092;2022-10-14T09:48:38;97865.58;;;25.02;34.85
37142;BME280;23041;49.816;20.092;2022-10-14T09:51:28;97863.45;;;26.35;34.33
37142;BME280;23041;49.816;20.092;2022-10-14T09:53:58;97869.73;;;26.72;33.45
37142;BME280;23041;49.816;20.092;2022-10-14T09:59:01;97864.64;;;25.36;32.68
37142;BME280;23041;49.816;20.092;2022-10-14T10:01:39;97866.33;;;24.79;32.80
37142;BME280;23041;49.816;20.092;2022-10-14T10:07:05;97867.20;;;23.76;33.19
37142;BME280;23041;49.816;20.092;2022-10-14T10:09:33;97866.62;;;23.04;33.59
37142;BME280;23041;49.816;20.092;2022-10-14T10:14:57;97865.16;;;22.16;34.37
37142;BME280;23041;49.816;20.092;2022-10-14T10:17:25;97864.82;;;21.82;34.77
37142;BME280;23041;49.816;20.092;2022-10-14T10:22:48;97864.33;;;21.41;35.59
37142;BME280;23041;49.816;20.092;2022-10-14T10:25:17;97865.31;;;21.06;36.02
37142;BME280;23041;49.816;20.092;2022-10-14T10:27:46;97865.33;;;20.91;36.49
37142;BME280;23041;49.816;20.092;2022-10-14T10:33:18;97865.33;;;20.91;37.20
37142;BME280;23041;49.816;20.092;2022-10-14T10:39:04;97858.58;;;21.03;37.75
37142;BME280;23041;49.816;20.092;2022-10-14T10:53:16;97848.30;;;26.19;35.75
37142;BME280;23041;49.816;20.092;2022-10-14T10:56:20;97847.53;;;25.76;34.95
37142;BME280;23041;49.816;20.092;2022-10-14T11:04:45;97840.66;;;27.08;32.55
37142;BME280;23041;49.816;20.092;2022-10-14T11:14:25;97850.45;;;24.52;32.64
37142;BME280;23041;49.816;20.092;2022-10-14T11:25:24;97835.75;;;22.60;34.62
37142;BME280;23041;49.816;20.092;2022-10-14T11:28:45;97835.63;;;22.64;35.08
37142;BME280;23041;49.816;20.092;2022-10-14T11:31:30;97831.13;;;24.43;35.40
37142;BME280;23041;49.816;20.092;2022-10-14T11:34:23;97827.43;;;25.54;34.87
37142;BME280;23041;49.816;20.092;2022-10-14T11:37:17;97824.23;;;25.27;34.45
37142;BME280;23041;49.816;20.092;2022-10-14T11:39:47;97814.79;;;25.00;34.26
37142;BME280;23041;49.816;20.092;2022-10-14T11:48:07;97825.02;;;25.39;33.35
37142;BME280;23041;49.816;20.092;2022-10-14T11:50:42;97820.91;;;24.80;33.48
37142;BME280;23041;49.816;20.092;2022-10-14T11:53:23;97822.38;;;24.93;33.72
37142;BME280;23041;49.816;20.092;2022-10-14T11:55:49;97814.33;;;26.55;33.74
37142;BME280;23041;49.816;20.092;2022-10-14T11:58:23;97806.70;;;28.11;33.20
37142;BME280;23041;49.816;20.092;2022-10-14T12:00:52;97803.67;;;28.22;32.39
37142;BME280;23041;49.816;20.092;2022-10-14T12:06:14;97800.89;;;26.54;31.94
37142;BME280;23041;49.816;20.092;2022-10-14T12:09:01;97797.80;;;25.53;32.19
37142;BME280;23041;49.816;20.092;2022-10-14T12:11:55;97799.66;;;25.08;32.57
37142;BME280;23041;49.816;20.092;2022-10-14T12:14:33;97794.20;;;24.51;32.70
37142;BME280;23041;49.816;20.092;2022-10-14T12:17:15;97797.48;;;24.08;32.88
37142;BME280;23041;49.816;20.092;2022-10-14T12:19:43;97795.28;;;23.55;33.15
37142;BME280;23041;49.816;20.092;2022-10-14T12:22:19;97799.89;;;23.31;33.48
37142;BME280;23041;49.816;20.092;2022-10-14T12:24:55;97797.52;;;23.17;33.79
37142;BME280;23041;49.816;20.092;2022-10-14T12:27:21;97797.66;;;22.90;34.22
37142;BME280;23041;49.816;20.092;2022-10-14T12:29:50;97791.73;;;22.32;34.54
37142;BME280;23041;49.816;20.092;2022-10-14T12:32:23;97784.41;;;21.97;35.07
37142;BME280;23041;49.816;20.092;2022-10-14T12:34:56;97791.57;;;21.55;35.50
37142;BME280;23041;49.816;20.092;2022-10-14T12:45:25;97786.19;;;20.11;37.49
37142;BME280;23041;49.816;20.092;2022-10-14T12:48:06;97792.77;;;19.87;38.05
37142;BME280;23041;49.816;20.092;2022-10-14T12:50:36;97786.72;;;19.59;38.56
37142;BME280;23041;49.816;20.092;2022-10-14T12:53:06;97796.05;;;19.31;39.01
37142;BME280;23041;49.816;20.092;2022-10-14T12:55:45;97794.34;;;19.08;39.49
37142;BME280;23041;49.816;20.092;2022-10-14T12:58:25;97805.03;;;18.51;40.29
37142;BME280;23041;49.816;20.092;2022-10-14T13:00:59;97811.54;;;17.76;41.41
37142;BME280;23041;49.816;20.092;2022-10-14T13:03:39;97815.16;;;17.06;42.72
37142;BME280;23041;49.816;20.092;2022-10-14T13:06:32;97825.03;;;16.47;44.07
37142;BME280;23041;49.816;20.092;2022-10-14T13:12:09;97829.05;;;15.68;46.89
37142;BME280;23041;49.816;20.092;2022-10-14T13:14:28;97822.52;;;15.39;48.24
37142;BME280;23041;49.816;20.092;2022-10-14T13:17:02;97835.20;;;15.54;49.31
37142;BME280;23041;49.816;20.092;2022-10-14T13:19:40;97830.75;;;15.70;50.15
37142;BME280;23041;49.816;20.092;2022-10-14T13:25:16;97837.54;;;16.19;51.31
37142;BME280;23041;49.816;20.092;2022-10-14T13:30:55;97832.44;;;16.27;52.14
37142;BME280;23041;49.816;20.092;2022-10-14T13:33:23;97834.73;;;16.33;52.50
37142;BME280;23041;49.816;20.092;2022-10-14T13:35:56;97833.67;;;16.35;52.79
37142;BME280;23041;49.816;20.092;2022-10-14T13:38:23;97838.58;;;16.40;53.03
37142;BME280;23041;49.816;20.092;2022-10-14T13:40:55;97838.89;;;16.42;53.25
37142;BME280;23041;49.816;20.092;2022-10-14T13:43:37;97827.21;;;16.29;53.55
37142;BME280;23041;49.816;20.092;2022-10-14T13:48:47;97830.27;;;16.49;54.07
37142;BME280;23041;49.816;20.092;2022-10-14T13:54:08;97824.38;;;16.79;54.34
37142;BME280;23041;49.816;20.092;2022-10-14T13:56:28;97818.45;;;16.95;54.54
37142;BME280;23041;49.816;20.092;2022-10-14T13:58:57;97823.92;;;17.13;54.68
37142;BME280;23041;49.816;20.092;2022-10-14T14:01:35;97823.09;;;17.27;54.74
37142;BME280;23041;49.816;20.092;2022-10-14T14:04:03;97822.10;;;17.39;54.80
37142;BME280;23041;49.816;20.092;2022-10-14T14:06:30;97818.88;;;17.36;54.83
37142;BME280;23041;49.816;20.092;2022-10-14T14:09:02;97822.45;;;17.32;54.77
37142;BME280;23041;49.816;20.092;2022-10-14T14:11:37;97819.24;;;17.24;54.76
37142;BME280;23041;49.816;20.092;2022-10-14T14:14:04;97812.49;;;17.16;54.85
37142;BME280;23041;49.816;20.092;2022-10-14T14:19:29;97819.48;;;17.07;55.14
37142;BME280;23041;49.816;20.092;2022-10-14T14:25:19;97801.38;;;16.88;55.54
37142;BME280;23041;49.816;20.092;2022-10-14T14:27:54;97805.95;;;17.00;55.74
37142;BME280;23041;49.816;20.092;2022-10-14T14:30:28;97804.28;;;16.98;55.92
37142;BME280;23041;49.816;20.092;2022-10-14T14:32:59;97804.69;;;17.10;56.08
37142;BME280;23041;49.816;20.092;2022-10-14T14:48:13;97805.37;;;17.76;56.72
37142;BME280;23041;49.816;20.092;2022-10-14T14:50:42;97802.84;;;17.87;56.78
37142;BME280;23041;49.816;20.092;2022-10-14T14:53:12;97804.86;;;17.82;56.78
37142;BME280;23041;49.816;20.092;2022-10-14T14:55:55;97803.46;;;17.87;56.80
37142;BME280;23041;49.816;20.092;2022-10-14T14:58:41;97797.76;;;17.86;56.81
37142;BME280;23041;49.816;20.092;2022-10-14T15:01:21;97800.31;;;17.75;56.78
37142;BME280;23041;49.816;20.092;2022-10-14T15:03:55;97797.14;;;17.58;56.77
37142;BME280;23041;49.816;20.092;2022-10-14T15:06:24;97792.63;;;17.41;56.84
37142;BME280;23041;49.816;20.092;2022-10-14T15:08:53;97790.51;;;17.36;56.93
37142;BME280;23041;49.816;20.092;2022-10-14T15:11:21;97788.91;;;17.21;57.02
37142;BME280;23041;49.816;20.092;2022-10-14T15:13:56;97792.89;;;16.96;57.17
37142;BME280;23041;49.816;20.092;2022-10-14T15:16:38;97784.36;;;16.71;57.34
37142;BME280;23041;49.816;20.092;2022-10-14T15:25:11;97779.67;;;16.30;57.99
37142;BME280;23041;49.816;20.092;2022-10-14T15:27:54;97781.08;;;16.17;58.23
37142;BME280;23041;49.816;20.092;2022-10-14T15:30:30;97781.38;;;16.10;58.38
37142;BME280;23041;49.816;20.092;2022-10-14T15:35:44;97778.17;;;15.79;58.67
37142;BME280;23041;49.816;20.092;2022-10-14T15:38:14;97775.13;;;15.73;58.87